White Bird, ID

8:24 PM PDT on September 23, 2014 (GMT -0700)
RAWS PITTSBURG LANDING ID US | Change Station
CLOSE
Current Station
Personal Weather Station
Location: Lucile, ID
Elevation: 1356 ft
Nearby Weather Stations

Elev 1356 ft 45.64 °N, 116.47 °W | Updated 56 minutes ago

Clear
Clear
77 °F
Feels Like 78 °F
N
0
Wind Variable Wind from North
Gusts 6.0 mph

Today
High -- | Low -- °F
--% Chance of Precip.
Yesterday
High -- | Low -- °F
Precip. -- in
6:34 AM 6:41 PM
Waning Crescent, 0% visible
Pressure 29.97 in
Visibility 7.0 miles
Clouds Clear
Heat Index 78 °F
Dew Point 55 °F
Humidity 46%
Rainfall 0.00 in
Snow Depth 1 in , 0 in , 0 in
UV 0 out of 12
Pollen 6.70 out of 12
PM2.5 Good
Flu Activity Not available.
METAR KGIC 240315Z AUTO 00000KT 7SM CLR 19/10 A2997 RMK AO1 T01860098

More Conditions Fewer Conditions

Pressure 29.97 in
Visibility 7.0 miles
Clouds Clear
Heat Index 78 °F
Dew Point 55 °F
Humidity 46%
Rainfall 0.00 in
Snow Depth 1 in , 0 in , 0 in
UV 0 out of 12
Pollen 6.70 out of 12
PM2.5 Good
Flu Activity Not available.
METAR KGIC 240315Z AUTO 00000KT 7SM CLR 19/10 A2997 RMK AO1 T01860098

More Conditions Fewer Conditions

10-Day Weather Forecast

Almanac

Astronomy

Sep. 23, 2014 Rise Set
Actual Time 6:34 AM PDT 6:41 PM PDT
Civil Twilight 6:04 AM PDT 7:10 PM PDT
Nautical Twilight 5:29 AM PDT 7:45 PM PDT
Astronomical Twilight 4:54 AM PDT 8:21 PM PDT
Moon 6:02 AM PDT (9/23) 6:21 PM PDT (9/23)
Length of Visible Light 13h 06m
Length of Day
12h 07m
Tomorrow will be 3m 10s shorter.
Waning Crescent, 0% of the Moon is Illuminated
Today
Waning Crescent
Sep 24
New
Oct 1
First Quarter
Oct 8
Full
Oct 15
Last Quarter

Today's Extremes

State Highs State Lows

Community

WunderPhotos

Upload Photos

1,755,877 photos uploaded!

WunderBlogs® & News

Nearby

Air Quality

  Air Quality AQ Index Pollutant
Yesterday Moderate
PM2.5
Current Good
PM2.5
Tuesday Good
PM2.5
Wednesday Good
PM2.5
Thursday Good
PM2.5

Snow Depth

Station Depth Elevation
Savage Pass 1 in 6170 ft
Crab Creek 0 in 6860 ft
Deadwood Summit 0 in 6860 ft
Vienna Mine 1 in 8960 ft
Humboldt Gulch 2 in 4250 ft

Earthquake Activity

City Distance Mag. Time & Date
No recent earthquake activity has been reported nearby.
Minimum magnitude displayed is 2.5.

Coastal Water Temperatures

Place Temperature
No Stations Reporting

Nearby Weather Stations